sensor_id;sensor_type;location;lat;lon;timestamp;pressure;altitude;pressure_sealevel;temperature;humidity
68654;BME280;55636;51.108;13.622;2022-08-19T00:00:21;99477.13;;;23.01;53.88
68654;BME280;55636;51.108;13.622;2022-08-19T00:01:25;99494.41;;;22.99;53.57
68654;BME280;55636;51.108;13.622;2022-08-19T00:02:31;99493.94;;;22.97;53.99
68654;BME280;55636;51.108;13.622;2022-08-19T00:03:36;99497.13;;;22.96;53.88
68654;BME280;55636;51.108;13.622;2022-08-19T00:04:38;99499.13;;;22.95;54.10
68654;BME280;55636;51.108;13.622;2022-08-19T00:05:42;99496.31;;;22.95;54.38
68654;BME280;55636;51.108;13.622;2022-08-19T00:06:46;99496.66;;;22.94;54.09
68654;BME280;55636;51.108;13.622;2022-08-19T00:07:49;99498.69;;;22.93;54.23
68654;BME280;55636;51.108;13.622;2022-08-19T00:08:52;99496.22;;;22.92;54.04
68654;BME280;55636;51.108;13.622;2022-08-19T00:09:54;99503.84;;;22.91;54.29
68654;BME280;55636;51.108;13.622;2022-08-19T00:10:58;99503.03;;;22.91;54.09
68654;BME280;55636;51.108;13.622;2022-08-19T00:12:01;99498.59;;;22.89;54.58
68654;BME280;55636;51.108;13.622;2022-08-19T00:13:04;99498.97;;;22.88;54.42
68654;BME280;55636;51.108;13.622;2022-08-19T00:14:08;99508.56;;;22.87;54.50
68654;BME280;55636;51.108;13.622;2022-08-19T00:15:14;99516.22;;;22.86;54.72
68654;BME280;55636;51.108;13.622;2022-08-19T00:16:18;99509.31;;;22.84;54.60
68654;BME280;55636;51.108;13.622;2022-08-19T00:17:27;99510.97;;;22.85;54.44
68654;BME280;55636;51.108;13.622;2022-08-19T00:18:29;99504.03;;;22.82;54.68
68654;BME280;55636;51.108;13.622;2022-08-19T00:19:32;99512.81;;;22.81;54.92
68654;BME280;55636;51.108;13.622;2022-08-19T00:20:34;99502.75;;;22.80;54.79
68654;BME280;55636;51.108;13.622;2022-08-19T00:21:36;99509.56;;;22.79;55.13
68654;BME280;55636;51.108;13.622;2022-08-19T00:22:41;99513.94;;;22.76;54.75
68654;BME280;55636;51.108;13.622;2022-08-19T00:23:44;99513.09;;;22.76;55.14
68654;BME280;55636;51.108;13.622;2022-08-19T00:24:46;99511.47;;;22.75;54.84
68654;BME280;55636;51.108;13.622;2022-08-19T00:25:51;99516.63;;;22.72;55.21
68654;BME280;55636;51.108;13.622;2022-08-19T00:26:55;99512.19;;;22.71;55.22
68654;BME280;55636;51.108;13.622;2022-08-19T00:28:18;99515.38;;;22.70;55.62
68654;BME280;55636;51.108;13.622;2022-08-19T00:29:24;99522.16;;;22.69;55.58
68654;BME280;55636;51.108;13.622;2022-08-19T00:30:26;99512.13;;;22.68;55.78
68654;BME280;55636;51.108;13.622;2022-08-19T00:31:32;99516.47;;;22.65;55.93
68654;BME280;55636;51.108;13.622;2022-08-19T00:32:34;99520.47;;;22.64;55.60
68654;BME280;55636;51.108;13.622;2022-08-19T00:33:37;99513.19;;;22.63;56.04
68654;BME280;55636;51.108;13.622;2022-08-19T00:34:39;99522.81;;;22.62;55.79
68654;BME280;55636;51.108;13.622;2022-08-19T00:35:42;99522.38;;;22.60;56.19
68654;BME280;55636;51.108;13.622;2022-08-19T00:36:46;99518.34;;;22.61;56.13
68654;BME280;55636;51.108;13.622;2022-08-19T00:37:49;99517.09;;;22.59;55.91
68654;BME280;55636;51.108;13.622;2022-08-19T00:38:51;99525.09;;;22.56;56.44
68654;BME280;55636;51.108;13.622;2022-08-19T00:39:54;99524.25;;;22.56;55.99
68654;BME280;55636;51.108;13.622;2022-08-19T00:40:57;99525.47;;;22.55;56.30
68654;BME280;55636;51.108;13.622;2022-08-19T00:42:00;99525.47;;;22.55;56.50
68654;BME280;55636;51.108;13.622;2022-08-19T00:43:10;99529.44;;;22.54;56.12
68654;BME280;55636;51.108;13.622;2022-08-19T00:44:21;99533.44;;;22.53;56.54
68654;BME280;55636;51.108;13.622;2022-08-19T00:45:28;99540.59;;;22.50;56.59
68654;BME280;55636;51.108;13.622;2022-08-19T00:46:40;99540.97;;;22.49;56.81
68654;BME280;55636;51.108;13.622;2022-08-19T00:47:45;99542.13;;;22.48;56.87
68654;BME280;55636;51.108;13.622;2022-08-19T00:48:48;99550.16;;;22.46;56.58
68654;BME280;55636;51.108;13.622;2022-08-19T00:49:53;99545.69;;;22.45;57.12
68654;BME280;55636;51.108;13.622;2022-08-19T00:50:58;99550.84;;;22.43;57.26
68654;BME280;55636;51.108;13.622;2022-08-19T00:52:09;99555.66;;;22.42;57.11
68654;BME280;55636;51.108;13.622;2022-08-19T00:53:17;99557.66;;;22.42;57.30
68654;BME280;55636;51.108;13.622;2022-08-19T00:54:21;99541.13;;;22.40;57.11
68654;BME280;55636;51.108;13.622;2022-08-19T00:55:32;99538.31;;;22.40;57.23
68654;BME280;55636;51.108;13.622;2022-08-19T00:56:36;99535.88;;;22.38;57.53
68654;BME280;55636;51.108;13.622;2022-08-19T00:57:46;99525.00;;;22.37;57.58
68654;BME280;55636;51.108;13.622;2022-08-19T00:58:50;99528.16;;;22.35;57.41
68654;BME280;55636;51.108;13.622;2022-08-19T00:59:54;99524.53;;;22.35;57.80
68654;BME280;55636;51.108;13.622;2022-08-19T01:01:04;99524.88;;;22.33;57.49
68654;BME280;55636;51.108;13.622;2022-08-19T01:02:07;99523.25;;;22.32;57.55
68654;BME280;55636;51.108;13.622;2022-08-19T01:03:12;99522.44;;;22.32;57.74
68654;BME280;55636;51.108;13.622;2022-08-19T01:04:15;99524.41;;;22.31;57.79
68654;BME280;55636;51.108;13.622;2022-08-19T01:05:23;99519.16;;;22.30;57.82
68654;BME280;55636;51.108;13.622;2022-08-19T01:06:26;99509.91;;;22.29;57.65
68654;BME280;55636;51.108;13.622;2022-08-19T01:07:33;99509.91;;;22.29;57.64
68654;BME280;55636;51.108;13.622;2022-08-19T01:08:39;99507.09;;;22.29;57.51
68654;BME280;55636;51.108;13.622;2022-08-19T01:09:41;99517.06;;;22.27;57.65
68654;BME280;55636;51.108;13.622;2022-08-19T01:10:55;99512.63;;;22.26;57.24
68654;BME280;55636;51.108;13.622;2022-08-19T01:11:57;99525.50;;;22.27;57.64
68654;BME280;55636;51.108;13.622;2022-08-19T01:13:01;99518.63;;;22.24;57.78
68654;BME280;55636;51.108;13.622;2022-08-19T01:14:04;99530.66;;;22.25;57.90
68654;BME280;55636;51.108;13.622;2022-08-19T01:15:10;99522.22;;;22.25;57.52
68654;BME280;55636;51.108;13.622;2022-08-19T01:16:13;99522.22;;;22.25;57.92
68654;BME280;55636;51.108;13.622;2022-08-19T01:17:16;99527.06;;;22.24;57.71
68654;BME280;55636;51.108;13.622;2022-08-19T01:18:19;99528.22;;;22.23;57.95
68654;BME280;55636;51.108;13.622;2022-08-19T01:19:37;99532.22;;;22.22;57.64
68654;BME280;55636;51.108;13.622;2022-08-19T01:20:45;99531.03;;;22.23;57.93
68654;BME280;55636;51.108;13.622;2022-08-19T01:21:57;99526.59;;;22.22;57.95
68654;BME280;55636;51.108;13.622;2022-08-19T01:23:15;99533.03;;;22.22;57.96
68654;BME280;55636;51.108;13.622;2022-08-19T01:24:17;99531.03;;;22.23;57.86
68654;BME280;55636;51.108;13.622;2022-08-19T01:25:24;99539.03;;;22.21;58.09
68654;BME280;55636;51.108;13.622;2022-08-19T01:26:29;99532.22;;;22.22;58.28
68654;BME280;55636;51.108;13.622;2022-08-19T01:27:41;99529.75;;;22.20;58.46
68654;BME280;55636;51.108;13.622;2022-08-19T01:28:47;99532.56;;;22.20;58.36
68654;BME280;55636;51.108;13.622;2022-08-19T01:29:52;99527.78;;;22.21;58.36
68654;BME280;55636;51.108;13.622;2022-08-19T01:30:56;99532.94;;;22.19;58.32
68654;BME280;55636;51.108;13.622;2022-08-19T01:32:00;99538.56;;;22.19;58.40
68654;BME280;55636;51.108;13.622;2022-08-19T01:33:03;99538.94;;;22.17;58.65
68654;BME280;55636;51.108;13.622;2022-08-19T01:34:08;99541.38;;;22.19;58.77
68654;BME280;55636;51.108;13.622;2022-08-19T01:35:11;99544.56;;;22.17;58.75
68654;BME280;55636;51.108;13.622;2022-08-19T01:36:22;99543.72;;;22.17;58.66
68654;BME280;55636;51.108;13.622;2022-08-19T01:37:24;99544.91;;;22.16;58.65
68654;BME280;55636;51.108;13.622;2022-08-19T01:38:28;99549.69;;;22.15;58.81
68654;BME280;55636;51.108;13.622;2022-08-19T01:39:32;99548.91;;;22.15;58.64
68654;BME280;55636;51.108;13.622;2022-08-19T01:40:36;99551.72;;;22.15;58.70
68654;BME280;55636;51.108;13.622;2022-08-19T01:41:40;99551.72;;;22.15;58.69
68654;BME280;55636;51.108;13.622;2022-08-19T01:42:42;99552.84;;;22.14;59.13
68654;BME280;55636;51.108;13.622;2022-08-19T01:43:45;99546.09;;;22.15;58.99
68654;BME280;55636;51.108;13.622;2022-08-19T01:45:08;99546.41;;;22.13;59.08
68654;BME280;55636;51.108;13.622;2022-08-19T01:46:10;99545.59;;;22.13;58.83
68654;BME280;55636;51.108;13.622;2022-08-19T01:47:12;99543.59;;;22.13;59.32
68654;BME280;55636;51.108;13.622;2022-08-19T01:48:15;99535.97;;;22.14;59.00
68654;BME280;55636;51.108;13.622;2022-08-19T01:49:19;99537.97;;;22.13;59.05
68654;BME280;55636;51.108;13.622;2022-08-19T01:50:22;99535.19;;;22.13;58.80
68654;BME280;55636;51.108;13.622;2022-08-19T01:51:26;99536.34;;;22.12;59.19
68654;BME280;55636;51.108;13.622;2022-08-19T01:52:29;99534.34;;;22.13;59.22
68654;BME280;55636;51.108;13.622;2022-08-19T01:53:32;99532.69;;;22.12;59.27
68654;BME280;55636;51.108;13.622;2022-08-19T01:54:37;99530.72;;;22.12;59.30
68654;BME280;55636;51.108;13.622;2022-08-19T01:55:42;99529.88;;;22.12;59.58
68654;BME280;55636;51.108;13.622;2022-08-19T01:56:44;99535.88;;;22.10;59.43
68654;BME280;55636;51.108;13.622;2022-08-19T01:57:55;99530.25;;;22.10;59.55
68654;BME280;55636;51.108;13.622;2022-08-19T01:59:05;99532.25;;;22.10;59.46
68654;BME280;55636;51.108;13.622;2022-08-19T02:00:11;99539.53;;;22.11;59.56
68654;BME280;55636;51.108;13.622;2022-08-19T02:01:14;99535.50;;;22.12;59.46
68654;BME280;55636;51.108;13.622;2022-08-19T02:02:16;99542.34;;;22.11;59.34
68654;BME280;55636;51.108;13.622;2022-08-19T02:03:18;99538.31;;;22.12;59.30
68654;BME280;55636;51.108;13.622;2022-08-19T02:04:20;99536.72;;;22.11;59.50
68654;BME280;55636;51.108;13.622;2022-08-19T02:05:23;99537.88;;;22.10;59.82
68654;BME280;55636;51.108;13.622;2022-08-19T02:06:26;99548.28;;;22.09;59.56
68654;BME280;55636;51.108;13.622;2022-08-19T02:07:29;99545.47;;;22.09;59.61
68654;BME280;55636;51.108;13.622;2022-08-19T02:08:34;99546.31;;;22.10;59.75
68654;BME280;55636;51.108;13.622;2022-08-19T02:09:37;99544.66;;;22.09;59.78
68654;BME280;55636;51.108;13.622;2022-08-19T02:10:42;99544.66;;;22.09;59.75
68654;BME280;55636;51.108;13.622;2022-08-19T02:11:45;99537.03;;;22.09;59.58
68654;BME280;55636;51.108;13.622;2022-08-19T02:12:48;99534.59;;;22.07;59.84
68654;BME280;55636;51.108;13.622;2022-08-19T02:13:52;99543.03;;;22.07;59.80
68654;BME280;55636;51.108;13.622;2022-08-19T02:14:54;99530.16;;;22.06;60.00
68654;BME280;55636;51.108;13.622;2022-08-19T02:15:56;99523.34;;;22.07;59.91
68654;BME280;55636;51.108;13.622;2022-08-19T02:16:58;99524.19;;;22.08;60.07
68654;BME280;55636;51.108;13.622;2022-08-19T02:18:01;99524.19;;;22.08;59.93
68654;BME280;55636;51.108;13.622;2022-08-19T02:19:04;99523.34;;;22.07;60.06
68654;BME280;55636;51.108;13.622;2022-08-19T02:20:07;99521.72;;;22.06;60.27
68654;BME280;55636;51.108;13.622;2022-08-19T02:21:21;99520.91;;;22.06;60.18
68654;BME280;55636;51.108;13.622;2022-08-19T02:22:25;99516.44;;;22.05;60.10
68654;BME280;55636;51.108;13.622;2022-08-19T02:23:31;99510.81;;;22.05;60.33
68654;BME280;55636;51.108;13.622;2022-08-19T02:24:33;99504.41;;;22.04;60.25
68654;BME280;55636;51.108;13.622;2022-08-19T02:25:36;99501.59;;;22.04;60.11
68654;BME280;55636;51.108;13.622;2022-08-19T02:26:38;99495.97;;;22.04;60.50
68654;BME280;55636;51.108;13.622;2022-08-19T02:27:43;99496.31;;;22.03;60.40
68654;BME280;55636;51.108;13.622;2022-08-19T02:28:45;99504.75;;;22.03;60.45
68654;BME280;55636;51.108;13.622;2022-08-19T02:29:49;99505.13;;;22.01;60.61
68654;BME280;55636;51.108;13.622;2022-08-19T02:30:52;99513.56;;;22.01;60.24
68654;BME280;55636;51.108;13.622;2022-08-19T02:31:54;99523.16;;;22.00;60.28
68654;BME280;55636;51.108;13.622;2022-08-19T02:32:56;99523.16;;;22.00;60.57
68654;BME280;55636;51.108;13.622;2022-08-19T02:34:00;99525.97;;;22.00;60.56
68654;BME280;55636;51.108;13.622;2022-08-19T02:35:04;99535.22;;;22.01;60.48
68654;BME280;55636;51.108;13.622;2022-08-19T02:36:15;99540.84;;;22.01;60.39
68654;BME280;55636;51.108;13.622;2022-08-19T02:37:21;99545.66;;;22.00;60.32
68654;BME280;55636;51.108;13.622;2022-08-19T02:38:44;99542.84;;;22.00;60.13
68654;BME280;55636;51.108;13.622;2022-08-19T02:39:55;99541.69;;;22.01;60.10
68654;BME280;55636;51.108;13.622;2022-08-19T02:41:00;99540.84;;;22.01;60.39
68654;BME280;55636;51.108;13.622;2022-08-19T02:42:04;99535.22;;;22.01;60.43
68654;BME280;55636;51.108;13.622;2022-08-19T02:43:08;99532.41;;;22.01;60.58
68654;BME280;55636;51.108;13.622;2022-08-19T02:44:10;99533.25;;;22.01;60.70
68654;BME280;55636;51.108;13.622;2022-08-19T02:45:33;99534.41;;;22.00;60.48
68654;BME280;55636;51.108;13.622;2022-08-19T02:46:36;99532.75;;;21.99;60.43
68654;BME280;55636;51.108;13.622;2022-08-19T02:47:38;99537.22;;;22.00;60.44
68654;BME280;55636;51.108;13.622;2022-08-19T02:48:41;99538.03;;;22.01;60.51
68654;BME280;55636;51.108;13.622;2022-08-19T02:49:43;99536.38;;;22.00;60.43
68654;BME280;55636;51.108;13.622;2022-08-19T02:50:46;99543.66;;;22.01;60.38
68654;BME280;55636;51.108;13.622;2022-08-19T02:51:54;99547.63;;;22.00;60.28
68654;BME280;55636;51.108;13.622;2022-08-19T02:52:57;99550.09;;;22.01;60.51
68654;BME280;55636;51.108;13.622;2022-08-19T02:53:59;99544.00;;;21.99;60.44
68654;BME280;55636;51.108;13.622;2022-08-19T02:55:03;99540.03;;;22.00;60.44
68654;BME280;55636;51.108;13.622;2022-08-19T02:56:06;99542.84;;;22.00;60.40
68654;BME280;55636;51.108;13.622;2022-08-19T02:57:09;99545.66;;;22.00;60.44
68654;BME280;55636;51.108;13.622;2022-08-19T02:58:13;99545.66;;;22.00;60.52
68654;BME280;55636;51.108;13.622;2022-08-19T02:59:15;99551.28;;;22.00;60.38
68654;BME280;55636;51.108;13.622;2022-08-19T03:00:17;99558.06;;;21.99;60.23
68654;BME280;55636;51.108;13.622;2022-08-19T03:01:23;99554.44;;;21.99;60.37
68654;BME280;55636;51.108;13.622;2022-08-19T03:02:26;99558.88;;;22.00;60.49
68654;BME280;55636;51.108;13.622;2022-08-19T03:03:29;99554.09;;;22.00;60.51
68654;BME280;55636;51.108;13.622;2022-08-19T03:04:31;99544.81;;;22.00;60.92
68654;BME280;55636;51.108;13.622;2022-08-19T03:05:33;99542.38;;;21.98;60.81
68654;BME280;55636;51.108;13.622;2022-08-19T03:06:56;99542.38;;;21.98;60.83
68654;BME280;55636;51.108;13.622;2022-08-19T03:08:14;99549.63;;;21.99;60.47
68654;BME280;55636;51.108;13.622;2022-08-19T03:09:19;99544.81;;;22.00;60.72
68654;BME280;55636;51.108;13.622;2022-08-19T03:10:21;99556.44;;;21.98;60.79
68654;BME280;55636;51.108;13.622;2022-08-19T03:11:26;99550.44;;;22.00;61.00
68654;BME280;55636;51.108;13.622;2022-08-19T03:12:29;99553.25;;;22.00;60.51
68654;BME280;55636;51.108;13.622;2022-08-19T03:13:31;99548.00;;;21.98;60.88
68654;BME280;55636;51.108;13.622;2022-08-19T03:14:34;99549.63;;;21.99;60.48
68654;BME280;55636;51.108;13.622;2022-08-19T03:15:39;99552.81;;;21.98;60.72
68654;BME280;55636;51.108;13.622;2022-08-19T03:16:50;99545.19;;;21.98;60.93
68654;BME280;55636;51.108;13.622;2022-08-19T03:17:53;99539.13;;;21.96;60.65
68654;BME280;55636;51.108;13.622;2022-08-19T03:18:56;99541.56;;;21.98;60.62
68654;BME280;55636;51.108;13.622;2022-08-19T03:20:01;99539.13;;;21.96;60.99
68654;BME280;55636;51.108;13.622;2022-08-19T03:21:03;99536.31;;;21.96;61.09
68654;BME280;55636;51.108;13.622;2022-08-19T03:22:05;99532.66;;;21.96;60.65
68654;BME280;55636;51.108;13.622;2022-08-19T03:23:08;99534.31;;;21.97;60.65
68654;BME280;55636;51.108;13.622;2022-08-19T03:24:10;99539.13;;;21.96;60.73
68654;BME280;55636;51.108;13.622;2022-08-19T03:25:13;99537.13;;;21.97;60.63
68654;BME280;55636;51.108;13.622;2022-08-19T03:26:15;99539.91;;;21.97;60.77
68654;BME280;55636;51.108;13.622;2022-08-19T03:27:18;99534.31;;;21.97;60.55
68654;BME280;55636;51.108;13.622;2022-08-19T03:28:20;99535.94;;;21.98;60.41
68654;BME280;55636;51.108;13.622;2022-08-19T03:29:24;99533.13;;;21.98;60.84
68654;BME280;55636;51.108;13.622;2022-08-19T03:30:32;99544.00;;;21.99;60.48
68654;BME280;55636;51.108;13.622;2022-08-19T03:31:35;99538.38;;;21.99;60.74
68654;BME280;55636;51.108;13.622;2022-08-19T03:32:52;99536.75;;;21.98;60.71
68654;BME280;55636;51.108;13.622;2022-08-19T03:33:58;99540.03;;;22.00;60.65
68654;BME280;55636;51.108;13.622;2022-08-19T03:35:00;99539.19;;;22.00;60.56
68654;BME280;55636;51.108;13.622;2022-08-19T03:36:10;99539.19;;;22.00;60.61
68654;BME280;55636;51.108;13.622;2022-08-19T03:37:12;99544.81;;;22.00;60.70
68654;BME280;55636;51.108;13.622;2022-08-19T03:38:15;99545.66;;;22.00;60.56
68654;BME280;55636;51.108;13.622;2022-08-19T03:39:17;99551.28;;;22.00;60.32
68654;BME280;55636;51.108;13.622;2022-08-19T03:40:19;99546.47;;;22.01;60.23
68654;BME280;55636;51.108;13.622;2022-08-19T03:41:24;99550.09;;;22.01;60.47
68654;BME280;55636;51.108;13.622;2022-08-19T03:42:44;99548.09;;;22.02;60.29
68654;BME280;55636;51.108;13.622;2022-08-19T03:43:51;99549.75;;;22.03;60.20
68654;BME280;55636;51.108;13.622;2022-08-19T03:44:54;99547.75;;;22.03;60.21
68654;BME280;55636;51.108;13.622;2022-08-19T03:46:11;99546.94;;;22.03;60.09
68654;BME280;55636;51.108;13.622;2022-08-19T03:47:14;99553.38;;;22.03;60.26
68654;BME280;55636;51.108;13.622;2022-08-19T03:48:17;99552.19;;;22.04;60.35
68654;BME280;55636;51.108;13.622;2022-08-19T03:49:21;99555.38;;;22.03;60.29
68654;BME280;55636;51.108;13.622;2022-08-19T03:50:29;99550.56;;;22.03;60.57
68654;BME280;55636;51.108;13.622;2022-08-19T03:51:35;99542.94;;;22.04;60.43
68654;BME280;55636;51.108;13.622;2022-08-19T03:52:38;99551.03;;;22.05;60.34
68654;BME280;55636;51.108;13.622;2022-08-19T03:53:48;99555.00;;;22.04;60.32
68654;BME280;55636;51.108;13.622;2022-08-19T03:54:51;99552.19;;;22.04;60.06
68654;BME280;55636;51.108;13.622;2022-08-19T03:55:55;99557.00;;;22.04;60.48
68654;BME280;55636;51.108;13.622;2022-08-19T03:56:58;99553.00;;;22.05;60.30
68654;BME280;55636;51.108;13.622;2022-08-19T03:58:00;99559.47;;;22.05;60.11
68654;BME280;55636;51.108;13.622;2022-08-19T03:59:05;99563.06;;;22.06;60.29
68654;BME280;55636;51.108;13.622;2022-08-19T04:00:08;99563.88;;;22.06;59.95
68654;BME280;55636;51.108;13.622;2022-08-19T04:01:18;99561.91;;;22.07;60.12
68654;BME280;55636;51.108;13.622;2022-08-19T04:02:20;99566.69;;;22.06;60.04
68654;BME280;55636;51.108;13.622;2022-08-19T04:03:25;99561.91;;;22.07;60.26
68654;BME280;55636;51.108;13.622;2022-08-19T04:04:28;99571.16;;;22.07;60.05
68654;BME280;55636;51.108;13.622;2022-08-19T04:05:32;99563.53;;;22.08;59.89
68654;BME280;55636;51.108;13.622;2022-08-19T04:06:36;99568.34;;;22.07;60.05
68654;BME280;55636;51.108;13.622;2022-08-19T04:07:41;99566.38;;;22.08;60.05
68654;BME280;55636;51.108;13.622;2022-08-19T04:08:45;99567.97;;;22.09;59.97
68654;BME280;55636;51.108;13.622;2022-08-19T04:09:48;99565.16;;;22.09;60.19
68654;BME280;55636;51.108;13.622;2022-08-19T04:10:50;99564.34;;;22.09;60.36
68654;BME280;55636;51.108;13.622;2022-08-19T04:11:55;99559.53;;;22.09;60.26
68654;BME280;55636;51.108;13.622;2022-08-19T04:12:57;99564.00;;;22.10;60.05
68654;BME280;55636;51.108;13.622;2022-08-19T04:14:00;99560.38;;;22.10;59.91
68654;BME280;55636;51.108;13.622;2022-08-19T04:15:05;99560.38;;;22.10;59.94
68654;BME280;55636;51.108;13.622;2022-08-19T04:16:08;99565.63;;;22.11;59.95
68654;BME280;55636;51.108;13.622;2022-08-19T04:17:12;99565.63;;;22.11;59.95
68654;BME280;55636;51.108;13.622;2022-08-19T04:18:15;99566.81;;;22.10;59.94
68654;BME280;55636;51.108;13.622;2022-08-19T04:19:18;99565.63;;;22.11;59.71
68654;BME280;55636;51.108;13.622;2022-08-19T04:20:20;99563.63;;;22.12;60.06
68654;BME280;55636;51.108;13.622;2022-08-19T04:21:24;99554.38;;;22.11;59.95
68654;BME280;55636;51.108;13.622;2022-08-19T04:22:27;99558.84;;;22.12;59.85
68654;BME280;55636;51.108;13.622;2022-08-19T04:23:31;99552.38;;;22.12;59.79
68654;BME280;55636;51.108;13.622;2022-08-19T04:24:34;99555.19;;;22.12;59.77
68654;BME280;55636;51.108;13.622;2022-08-19T04:25:39;99544.78;;;22.12;59.53
68654;BME280;55636;51.108;13.622;2022-08-19T04:26:45;99550.41;;;22.12;59.98
68654;BME280;55636;51.108;13.622;2022-08-19T04:27:47;99547.97;;;22.11;59.80
68654;BME280;55636;51.108;13.622;2022-08-19T04:28:51;99541.97;;;22.12;59.84
68654;BME280;55636;51.108;13.622;2022-08-19T04:29:53;99543.13;;;22.11;59.64
68654;BME280;55636;51.108;13.622;2022-08-19T04:30:57;99550.78;;;22.11;59.80
68654;BME280;55636;51.108;13.622;2022-08-19T04:32:00;99560.81;;;22.12;59.77
68654;BME280;55636;51.108;13.622;2022-08-19T04:33:12;99551.94;;;22.10;60.06
68654;BME280;55636;51.108;13.622;2022-08-19T04:34:17;99560.38;;;22.10;59.81
68654;BME280;55636;51.108;13.622;2022-08-19T04:35:20;99564.81;;;22.11;59.59
68654;BME280;55636;51.108;13.622;2022-08-19T04:36:28;99562.34;;;22.09;59.79
68654;BME280;55636;51.108;13.622;2022-08-19T04:37:31;99566.81;;;22.10;59.88
68654;BME280;55636;51.108;13.622;2022-08-19T04:38:36;99563.53;;;22.08;59.77
68654;BME280;55636;51.108;13.622;2022-08-19T04:39:39;99566.38;;;22.08;59.75
68654;BME280;55636;51.108;13.622;2022-08-19T04:41:03;99553.09;;;22.09;59.76
68654;BME280;55636;51.108;13.622;2022-08-19T04:42:24;99553.09;;;22.09;59.65
68654;BME280;55636;51.108;13.622;2022-08-19T04:43:44;99556.72;;;22.09;59.81
68654;BME280;55636;51.108;13.622;2022-08-19T04:44:50;99555.91;;;22.09;59.79
68654;BME280;55636;51.108;13.622;2022-08-19T04:45:53;99558.72;;;22.09;59.66
68654;BME280;55636;51.108;13.622;2022-08-19T04:47:02;99557.94;;;22.08;59.74
68654;BME280;55636;51.108;13.622;2022-08-19T04:48:12;99569.50;;;22.06;59.81
68654;BME280;55636;51.108;13.622;2022-08-19T04:49:27;99569.16;;;22.08;60.02
68654;BME280;55636;51.108;13.622;2022-08-19T04:50:29;99577.59;;;22.08;59.91
68654;BME280;55636;51.108;13.622;2022-08-19T04:51:33;99582.41;;;22.07;59.66
68654;BME280;55636;51.108;13.622;2022-08-19T04:52:35;99572.31;;;22.06;59.98
68654;BME280;55636;51.108;13.622;2022-08-19T04:53:38;99577.94;;;22.06;60.11
68654;BME280;55636;51.108;13.622;2022-08-19T04:54:41;99580.75;;;22.06;59.86
68654;BME280;55636;51.108;13.622;2022-08-19T04:55:43;99577.13;;;22.06;59.84
68654;BME280;55636;51.108;13.622;2022-08-19T04:56:45;99577.13;;;22.06;59.95
68654;BME280;55636;51.108;13.622;2022-08-19T04:57:47;99569.88;;;22.05;60.00
68654;BME280;55636;51.108;13.622;2022-08-19T04:58:50;99573.53;;;22.05;59.84
68654;BME280;55636;51.108;13.622;2022-08-19T04:59:55;99575.13;;;22.06;59.71
68654;BME280;55636;51.108;13.622;2022-08-19T05:00:57;99573.53;;;22.05;59.77
68654;BME280;55636;51.108;13.622;2022-08-19T05:02:03;99577.13;;;22.06;60.03
68654;BME280;55636;51.108;13.622;2022-08-19T05:03:05;99581.13;;;22.05;59.97
68654;BME280;55636;51.108;13.622;2022-08-19T05:04:08;99579.13;;;22.05;59.57
68654;BME280;55636;51.108;13.622;2022-08-19T05:05:11;99579.13;;;22.05;59.44
68654;BME280;55636;51.108;13.622;2022-08-19T05:06:15;99584.75;;;22.05;59.77
68654;BME280;55636;51.108;13.622;2022-08-19T05:07:18;99576.34;;;22.05;59.51
68654;BME280;55636;51.108;13.622;2022-08-19T05:08:21;99579.13;;;22.05;59.67
68654;BME280;55636;51.108;13.622;2022-08-19T05:09:32;99573.53;;;22.05;59.80
68654;BME280;55636;51.108;13.622;2022-08-19T05:10:54;99574.69;;;22.04;59.49
68654;BME280;55636;51.108;13.622;2022-08-19T05:11:57;99574.69;;;22.04;59.81
68654;BME280;55636;51.108;13.622;2022-08-19T05:12:59;99571.88;;;22.04;59.81
68654;BME280;55636;51.108;13.622;2022-08-19T05:14:01;99576.69;;;22.04;59.66
68654;BME280;55636;51.108;13.622;2022-08-19T05:15:04;99569.06;;;22.04;59.70
68654;BME280;55636;51.108;13.622;2022-08-19T05:16:07;99576.69;;;22.04;60.02
68654;BME280;55636;51.108;13.622;2022-08-19T05:17:11;99577.50;;;22.04;59.91
68654;BME280;55636;51.108;13.622;2022-08-19T05:18:29;99568.25;;;22.04;59.84
68654;BME280;55636;51.108;13.622;2022-08-19T05:19:50;99573.88;;;22.04;60.01
68654;BME280;55636;51.108;13.622;2022-08-19T05:21:15;99579.50;;;22.04;59.68
68654;BME280;55636;51.108;13.622;2022-08-19T05:22:37;99581.47;;;22.03;59.81
68654;BME280;55636;51.108;13.622;2022-08-19T05:23:39;99585.13;;;22.04;59.84
68654;BME280;55636;51.108;13.622;2022-08-19T05:24:42;99588.28;;;22.02;59.63
68654;BME280;55636;51.108;13.622;2022-08-19T05:26:04;99596.72;;;22.02;59.63
68654;BME280;55636;51.108;13.622;2022-08-19T05:27:06;99599.50;;;22.02;59.80
68654;BME280;55636;51.108;13.622;2022-08-19T05:28:09;99595.09;;;22.01;59.68
68654;BME280;55636;51.108;13.622;2022-08-19T05:29:13;99596.25;;;22.00;59.64
68654;BME280;55636;51.108;13.622;2022-08-19T05:30:16;99600.72;;;22.01;59.80
68654;BME280;55636;51.108;13.622;2022-08-19T05:31:19;99588.63;;;22.01;59.87
68654;BME280;55636;51.108;13.622;2022-08-19T05:32:22;99595.09;;;22.01;59.91
68654;BME280;55636;51.108;13.622;2022-08-19T05:33:25;99605.50;;;22.01;59.68
68654;BME280;55636;51.108;13.622;2022-08-19T05:34:27;99606.66;;;22.00;59.96
68654;BME280;55636;51.108;13.622;2022-08-19T05:35:29;99605.88;;;21.99;59.98
68654;BME280;55636;51.108;13.622;2022-08-19T05:36:39;99615.09;;;22.00;59.65
68654;BME280;55636;51.108;13.622;2022-08-19T05:37:42;99615.09;;;22.00;59.84
68654;BME280;55636;51.108;13.622;2022-08-19T05:38:44;99617.13;;;21.99;59.85
68654;BME280;55636;51.108;13.622;2022-08-19T05:39:46;99615.94;;;22.00;60.15
68654;BME280;55636;51.108;13.622;2022-08-19T05:40:52;99621.56;;;22.00;59.69